Terminal Aerodrome Forecast
Issued by NWS

Home | Current Version | Previous Version | Text Only | Print | Product List | Glossary Off
Versions: 1 2 3 4 5 6 7 8 9 10 11 12 13 14

000
FTUS43 KGRB 241306 AAA
TAFRHI
TAF AMD
KRHI 241306Z 2413/2512 23007KT P6SM SCT020 BKN050
      TEMPO 2414/2416 BKN020
     FM241600 26008G15KT P6SM SCT030
     FM242000 28010G17KT P6SM SCT200
     FM250200 29006KT P6SM FEW250=

USA.gov is the U.S. government's official web portal to all federal, state and local government web resources and services.